createdAt,value
2023-02-18T00:00:00.592Z,6
2023-02-18T00:05:00.579Z,6
2023-02-18T00:10:00.653Z,7
2023-02-18T00:15:00.549Z,7
2023-02-18T00:20:00.560Z,6
2023-02-18T00:25:00.608Z,7
2023-02-18T00:30:00.725Z,7
2023-02-18T00:35:00.578Z,7
2023-02-18T00:40:00.604Z,7
2023-02-18T00:45:00.733Z,6
2023-02-18T00:50:00.562Z,6
2023-02-18T00:55:00.595Z,7
2023-02-18T01:00:00.620Z,6
2023-02-18T01:05:00.663Z,6
2023-02-18T01:10:00.597Z,8
2023-02-18T01:15:00.577Z,7
2023-02-18T01:20:00.610Z,7
2023-02-18T01:25:00.595Z,6
2023-02-18T01:30:00.680Z,7
2023-02-18T01:35:00.562Z,6
2023-02-18T01:40:00.569Z,8
2023-02-18T01:45:00.591Z,7
2023-02-18T01:50:00.559Z,8
2023-02-18T01:55:00.590Z,7
2023-02-18T02:00:00.560Z,7
2023-02-18T02:05:00.597Z,7
2023-02-18T02:10:00.605Z,7
2023-02-18T02:15:00.563Z,7
2023-02-18T02:20:00.564Z,6
2023-02-18T02:25:00.591Z,7
2023-02-18T02:30:00.572Z,8
2023-02-18T02:35:00.583Z,8
2023-02-18T02:40:00.598Z,7
2023-02-18T02:45:00.614Z,7
2023-02-18T02:50:00.569Z,7
2023-02-18T02:55:00.687Z,7
2023-02-18T03:00:00.618Z,7
2023-02-18T03:05:00.580Z,7
2023-02-18T03:10:00.604Z,8
2023-02-18T03:15:00.596Z,8
2023-02-18T03:20:00.570Z,6
2023-02-18T03:25:00.584Z,7
2023-02-18T03:30:00.583Z,6
2023-02-18T03:35:00.598Z,6
2023-02-18T03:40:00.595Z,8
2023-02-18T03:45:00.554Z,7
2023-02-18T03:50:00.609Z,7
2023-02-18T03:55:00.591Z,7
2023-02-18T04:00:00.559Z,7
2023-02-18T04:05:00.608Z,8
2023-02-18T04:10:00.582Z,7
2023-02-18T04:15:00.592Z,8
2023-02-18T04:20:00.627Z,6
2023-02-18T04:25:00.589Z,6
2023-02-18T04:30:00.601Z,7
2023-02-18T04:35:00.576Z,6
2023-02-18T04:40:00.603Z,7
2023-02-18T04:45:00.615Z,6
2023-02-18T04:50:00.565Z,7
2023-02-18T04:55:00.584Z,6
2023-02-18T05:00:00.612Z,7
2023-02-18T05:05:00.584Z,6
2023-02-18T05:10:00.617Z,5
2023-02-18T05:15:00.603Z,6
2023-02-18T05:20:00.572Z,6
2023-02-18T05:25:00.593Z,6
2023-02-18T05:30:00.667Z,5
2023-02-18T05:35:00.558Z,7
2023-02-18T05:40:00.591Z,6
2023-02-18T05:45:00.587Z,6
2023-02-18T05:50:00.566Z,6
2023-02-18T05:55:00.584Z,5
2023-02-18T06:00:00.626Z,5
2023-02-18T06:05:00.586Z,4
2023-02-18T06:10:00.568Z,3
2023-02-18T06:15:00.597Z,6
2023-02-18T06:20:00.570Z,6
2023-02-18T06:25:00.594Z,5
2023-02-18T06:30:00.596Z,6
2023-02-18T06:35:00.595Z,5
2023-02-18T06:40:00.595Z,5
2023-02-18T06:45:00.586Z,4
2023-02-18T06:50:00.597Z,5
2023-02-18T06:55:00.587Z,4
2023-02-18T07:00:00.551Z,4
2023-02-18T07:05:00.592Z,4
2023-02-18T07:10:00.571Z,5
2023-02-18T07:15:00.580Z,4
2023-02-18T07:20:00.583Z,5
2023-02-18T07:25:00.593Z,6
2023-02-18T07:30:00.640Z,5
2023-02-18T07:35:00.588Z,5
2023-02-18T07:40:00.608Z,4
2023-02-18T07:45:00.572Z,5
2023-02-18T07:50:00.607Z,4
2023-02-18T07:55:00.591Z,5
2023-02-18T08:00:00.553Z,6
2023-02-18T08:05:00.602Z,5
2023-02-18T08:10:00.558Z,4
2023-02-18T08:15:00.607Z,4
2023-02-18T08:20:00.568Z,5
2023-02-18T08:25:00.600Z,6
2023-02-18T08:30:00.657Z,5
2023-02-18T08:35:00.566Z,5
2023-02-18T08:40:00.573Z,4
2023-02-18T08:45:00.624Z,4
2023-02-18T08:50:00.579Z,4
2023-02-18T08:55:00.639Z,5
2023-02-18T09:00:00.573Z,5
2023-02-18T09:05:00.594Z,4
2023-02-18T09:10:00.596Z,4
2023-02-18T09:15:00.587Z,2
2023-02-18T09:20:00.602Z,4
2023-02-18T09:25:00.606Z,3
2023-02-18T09:30:00.587Z,3
2023-02-18T09:40:00.566Z,3
2023-02-18T09:50:00.624Z,1
2023-02-18T09:55:00.637Z,2
2023-02-18T10:00:00.595Z,3
2023-02-18T10:05:00.611Z,4
2023-02-18T10:10:00.610Z,3
2023-02-18T10:20:01.028Z,2
2023-02-18T10:25:00.590Z,3
2023-02-18T10:30:00.598Z,3
2023-02-18T10:35:00.613Z,3
2023-02-18T10:40:05.586Z,4
2023-02-18T10:45:00.584Z,3
2023-02-18T10:50:00.584Z,3
2023-02-18T10:55:00.735Z,3
2023-02-18T11:00:00.609Z,3
2023-02-18T11:05:00.649Z,3
2023-02-18T11:10:00.561Z,3
2023-02-18T11:15:00.604Z,3
2023-02-18T11:20:00.582Z,2
2023-02-18T11:25:00.598Z,4
2023-02-18T11:30:00.623Z,3
2023-02-18T11:35:00.584Z,3
2023-02-18T11:40:00.565Z,1
2023-02-18T11:45:00.638Z,1
2023-02-18T11:50:00.579Z,1
2023-02-18T11:55:00.612Z,1
2023-02-18T12:00:00.573Z,1
2023-02-18T12:05:00.648Z,0
2023-02-18T12:10:00.607Z,2
2023-02-18T12:15:00.611Z,1
2023-02-18T12:25:00.562Z,1
2023-02-18T12:30:00.637Z,1
2023-02-18T12:35:00.608Z,1
2023-02-18T12:45:00.597Z,2
2023-02-18T12:50:00.616Z,4
2023-02-18T12:55:00.608Z,5
2023-02-18T13:00:00.602Z,5
2023-02-18T13:05:02.622Z,6
2023-02-18T13:10:00.601Z,7
2023-02-18T13:15:00.616Z,6
2023-02-18T13:20:00.576Z,6
2023-02-18T13:25:00.827Z,7
2023-02-18T13:30:00.613Z,6
2023-02-18T13:35:00.602Z,8
2023-02-18T13:40:00.585Z,6
2023-02-18T13:45:00.592Z,7
2023-02-18T13:50:00.594Z,7
2023-02-18T13:55:00.612Z,7
2023-02-18T14:00:00.557Z,7
2023-02-18T14:05:00.592Z,8
2023-02-18T14:10:00.552Z,7
2023-02-18T14:15:00.594Z,8
2023-02-18T14:20:00.623Z,7
2023-02-18T14:25:00.598Z,9
2023-02-18T14:30:00.621Z,8
2023-02-18T14:35:00.602Z,7
2023-02-18T14:40:00.687Z,9
2023-02-18T14:45:00.590Z,8
2023-02-18T14:50:00.559Z,8
2023-02-18T14:55:00.625Z,7
2023-02-18T15:00:00.608Z,7
2023-02-18T15:05:00.595Z,6
2023-02-18T15:10:00.616Z,6
2023-02-18T15:15:00.602Z,6
2023-02-18T15:20:00.613Z,5
2023-02-18T15:25:00.663Z,4
2023-02-18T15:30:00.575Z,4
2023-02-18T15:35:00.577Z,4
2023-02-18T15:40:00.591Z,5
2023-02-18T15:45:00.581Z,5
2023-02-18T15:50:00.590Z,3
2023-02-18T15:55:00.610Z,3
2023-02-18T16:00:00.674Z,4
2023-02-18T16:05:00.584Z,3
2023-02-18T16:10:00.570Z,4
2023-02-18T16:15:00.609Z,4
2023-02-18T16:20:05.458Z,5
2023-02-18T16:25:00.640Z,5
2023-02-18T16:30:00.619Z,2
2023-02-18T16:35:00.597Z,3
2023-02-18T16:40:00.571Z,4
2023-02-18T16:45:00.602Z,3
2023-02-18T16:50:00.602Z,4
2023-02-18T16:55:00.597Z,3
2023-02-18T17:00:00.604Z,4
2023-02-18T17:05:00.591Z,4
2023-02-18T17:10:00.601Z,4
2023-02-18T17:15:00.586Z,3
2023-02-18T17:20:00.602Z,2
2023-02-18T17:25:00.579Z,3
2023-02-18T17:30:00.617Z,3
2023-02-18T17:35:02.575Z,1
2023-02-18T17:40:00.607Z,3
2023-02-18T17:45:00.577Z,1
2023-02-18T17:50:00.571Z,3
2023-02-18T17:55:00.600Z,3
2023-02-18T18:00:00.600Z,4
2023-02-18T18:05:00.586Z,3
2023-02-18T18:10:00.567Z,3
2023-02-18T18:15:00.598Z,3
2023-02-18T18:20:00.566Z,2
2023-02-18T18:25:00.639Z,1
2023-02-18T18:30:00.668Z,3
2023-02-18T18:40:00.622Z,4
2023-02-18T18:45:00.606Z,3
2023-02-18T18:50:00.577Z,3
2023-02-18T18:55:00.684Z,4
2023-02-18T19:00:00.590Z,3
2023-02-18T19:05:00.593Z,3
2023-02-18T19:10:00.599Z,3
2023-02-18T19:30:00.720Z,1
2023-02-18T19:40:00.676Z,3
2023-02-18T19:45:00.674Z,3
2023-02-18T19:50:02.662Z,3
2023-02-18T19:55:02.663Z,3
2023-02-18T20:00:00.612Z,3
2023-02-18T20:05:00.612Z,3
2023-02-18T20:10:00.676Z,3
2023-02-18T20:15:00.636Z,3
2023-02-18T20:25:00.667Z,1
2023-02-18T20:30:00.720Z,2
2023-02-18T20:35:00.639Z,2
2023-02-18T20:40:00.645Z,2
2023-02-18T20:45:00.649Z,1
2023-02-18T20:50:00.667Z,3
2023-02-18T20:55:00.616Z,2
2023-02-18T21:00:02.659Z,2
2023-02-18T21:05:00.626Z,1
2023-02-18T21:10:00.668Z,3
2023-02-18T21:15:00.649Z,3
2023-02-18T21:20:00.710Z,3
2023-02-18T21:25:00.616Z,3
2023-02-18T21:30:00.704Z,3
2023-02-18T21:35:00.661Z,3
2023-02-18T21:40:00.633Z,2
2023-02-18T21:45:00.648Z,3
2023-02-18T21:50:00.728Z,3
2023-02-18T21:55:00.620Z,3
2023-02-18T22:00:08.322Z,3
2023-02-18T22:05:00.621Z,3
2023-02-18T22:10:00.649Z,2
2023-02-18T22:15:00.677Z,3
2023-02-18T22:20:00.629Z,3
2023-02-18T22:25:00.641Z,1
2023-02-18T22:30:00.690Z,1
2023-02-18T22:35:00.651Z,1
2023-02-18T22:40:00.657Z,1
2023-02-18T22:45:00.616Z,1
2023-02-18T22:50:00.671Z,1
2023-02-18T22:55:00.605Z,1
2023-02-18T23:00:00.630Z,1
2023-02-18T23:05:00.651Z,2
2023-02-18T23:10:00.606Z,1
2023-02-18T23:15:00.636Z,0
2023-02-18T23:20:00.656Z,2
2023-02-18T23:25:00.606Z,3
2023-02-18T23:30:00.678Z,2
2023-02-18T23:35:00.644Z,1
2023-02-18T23:40:00.622Z,2
2023-02-18T23:45:00.653Z,2
2023-02-18T23:50:00.820Z,2
2023-02-18T23:55:00.667Z,1
